createdAt,value
2019-03-09T00:00:01.457Z,0.00
2019-03-09T00:01:01.446Z,0.00
2019-03-09T00:02:01.441Z,0.00
2019-03-09T00:03:01.435Z,0.00
2019-03-09T00:04:01.425Z,0.00
2019-03-09T00:05:01.415Z,0.00
2019-03-09T00:06:01.443Z,0.00
2019-03-09T00:07:01.400Z,0.00
2019-03-09T00:08:01.394Z,0.00
2019-03-09T00:09:01.381Z,0.00
2019-03-09T00:10:01.376Z,0.00
2019-03-09T00:11:01.368Z,0.00
2019-03-09T00:12:01.361Z,0.00
2019-03-09T00:13:01.355Z,0.00
2019-03-09T00:14:01.341Z,0.00
2019-03-09T00:15:01.339Z,0.00
2019-03-09T00:16:01.328Z,0.00
2019-03-09T00:17:01.345Z,0.00
2019-03-09T00:18:01.312Z,0.00
2019-03-09T00:19:01.303Z,0.00
2019-03-09T00:20:01.298Z,0.00
2019-03-09T00:21:01.287Z,0.00
2019-03-09T00:22:01.278Z,0.00
2019-03-09T00:23:01.271Z,0.00
2019-03-09T00:24:01.262Z,0.00
2019-03-09T00:25:01.255Z,0.00
2019-03-09T00:26:01.274Z,0.00
2019-03-09T00:27:01.238Z,0.00
2019-03-09T00:28:01.232Z,0.00
2019-03-09T00:29:01.248Z,0.00
2019-03-09T00:30:01.217Z,0.00
2019-03-09T00:31:01.210Z,0.00
2019-03-09T00:32:01.205Z,0.00
2019-03-09T00:33:01.189Z,0.00
2019-03-09T00:34:01.184Z,0.00
2019-03-09T00:35:01.176Z,0.00
2019-03-09T00:36:01.176Z,0.00
2019-03-09T00:37:01.158Z,0.00
2019-03-09T00:38:01.151Z,0.00
2019-03-09T00:39:01.142Z,0.00
2019-03-09T00:40:01.134Z,0.00
2019-03-09T00:41:01.129Z,0.00
2019-03-09T00:42:01.121Z,0.00
2019-03-09T00:43:01.113Z,0.00
2019-03-09T00:44:01.104Z,0.00
2019-03-09T00:45:01.095Z,0.00
2019-03-09T00:46:01.086Z,0.00
2019-03-09T00:47:01.077Z,0.00
2019-03-09T00:48:01.071Z,0.00
2019-03-09T00:49:01.057Z,0.00
2019-03-09T00:50:01.054Z,0.00
2019-03-09T00:51:01.047Z,0.00
2019-03-09T00:52:01.035Z,0.00
2019-03-09T00:53:01.032Z,0.00
2019-03-09T00:54:01.025Z,0.00
2019-03-09T00:55:01.014Z,0.00
2019-03-09T00:56:01.042Z,0.00
2019-03-09T00:57:00.996Z,0.00
2019-03-09T00:58:00.993Z,0.00
2019-03-09T00:59:00.981Z,0.00
2019-03-09T01:00:00.972Z,0.00
2019-03-09T01:01:00.966Z,0.00
2019-03-09T01:02:00.956Z,0.00
2019-03-09T01:03:00.954Z,0.00
2019-03-09T01:04:00.942Z,0.00
2019-03-09T01:05:00.932Z,0.00
2019-03-09T01:06:00.924Z,0.00
2019-03-09T01:07:00.915Z,0.00
2019-03-09T01:08:00.909Z,0.00
2019-03-09T01:09:00.904Z,0.00
2019-03-09T01:10:00.891Z,0.00
2019-03-09T01:11:00.884Z,0.00
2019-03-09T01:12:00.877Z,0.00
2019-03-09T01:13:00.871Z,0.00
2019-03-09T01:14:00.862Z,0.00
2019-03-09T01:15:00.851Z,0.00
2019-03-09T01:16:00.841Z,0.00
2019-03-09T01:17:00.838Z,0.00
2019-03-09T01:18:00.827Z,0.00
2019-03-09T01:19:00.821Z,0.00
2019-03-09T01:20:00.813Z,0.00
2019-03-09T01:21:00.806Z,0.00
2019-03-09T01:22:00.797Z,0.00
2019-03-09T01:23:00.790Z,0.00
2019-03-09T01:24:00.782Z,0.00
2019-03-09T01:25:00.772Z,0.00
2019-03-09T01:26:00.762Z,0.00
2019-03-09T01:27:00.756Z,0.00
2019-03-09T01:28:00.748Z,0.00
2019-03-09T01:29:00.737Z,0.00
2019-03-09T01:30:00.729Z,0.00
2019-03-09T01:31:00.723Z,0.00
2019-03-09T01:32:00.719Z,0.00
2019-03-09T01:33:00.706Z,0.00
2019-03-09T01:34:00.698Z,0.00
2019-03-09T01:35:00.688Z,0.00
2019-03-09T01:36:00.684Z,0.00
2019-03-09T01:37:00.674Z,0.00
2019-03-09T01:38:00.665Z,0.00
2019-03-09T01:39:00.658Z,0.00
2019-03-09T01:40:00.689Z,0.00
2019-03-09T01:41:00.641Z,0.00
2019-03-09T01:42:00.638Z,0.00
2019-03-09T01:43:00.627Z,0.00
2019-03-09T01:44:00.623Z,0.00
2019-03-09T01:45:00.610Z,0.00
2019-03-09T01:46:00.662Z,0.00
2019-03-09T01:47:00.597Z,0.00
2019-03-09T01:48:00.583Z,0.00
2019-03-09T01:49:00.578Z,0.00
2019-03-09T01:50:00.569Z,0.00
2019-03-09T01:51:00.565Z,0.00
2019-03-09T01:52:00.555Z,0.00
2019-03-09T01:53:00.545Z,0.00
2019-03-09T01:54:00.538Z,0.00
2019-03-09T01:55:00.542Z,0.00
2019-03-09T01:56:00.516Z,0.00
2019-03-09T01:57:00.515Z,0.00
2019-03-09T01:58:00.509Z,0.00
2019-03-09T01:59:00.497Z,0.00
2019-03-09T02:00:00.494Z,0.00
2019-03-09T02:01:00.479Z,0.00
2019-03-09T02:02:00.478Z,0.00
2019-03-09T02:03:00.469Z,0.00
2019-03-09T02:04:00.457Z,0.00
2019-03-09T02:05:00.449Z,0.00
2019-03-09T02:06:00.440Z,0.00
2019-03-09T02:07:00.433Z,0.00
2019-03-09T02:08:00.431Z,0.00
2019-03-09T02:09:00.420Z,0.00
2019-03-09T02:10:00.427Z,0.00
2019-03-09T02:11:00.399Z,0.00
2019-03-09T02:12:00.392Z,0.00
2019-03-09T02:13:00.384Z,0.00
2019-03-09T02:14:00.377Z,0.00
2019-03-09T02:15:00.378Z,0.00
2019-03-09T02:16:00.360Z,0.00
2019-03-09T02:17:00.350Z,0.00
2019-03-09T02:18:00.342Z,0.00
2019-03-09T02:19:00.335Z,0.00
2019-03-09T02:20:00.400Z,0.00
2019-03-09T02:21:00.318Z,0.00
2019-03-09T02:22:00.315Z,0.00
2019-03-09T02:23:00.304Z,0.00
2019-03-09T02:24:00.295Z,0.00
2019-03-09T02:25:00.394Z,0.00
2019-03-09T02:26:00.279Z,0.00
2019-03-09T02:27:00.272Z,0.00
2019-03-09T02:28:00.299Z,0.00
2019-03-09T02:29:01.078Z,0.00
2019-03-09T02:30:00.519Z,0.00
2019-03-09T02:31:00.264Z,0.00
2019-03-09T02:32:00.229Z,0.00
2019-03-09T02:33:00.226Z,0.00
2019-03-09T02:34:00.219Z,0.00
2019-03-09T02:35:00.426Z,0.00
2019-03-09T02:36:00.204Z,0.00
2019-03-09T02:37:00.194Z,0.00
2019-03-09T02:38:00.237Z,0.00
2019-03-09T02:39:00.176Z,0.00
2019-03-09T02:40:00.488Z,0.00
2019-03-09T02:41:00.160Z,0.00
2019-03-09T02:42:00.164Z,0.00
2019-03-09T02:43:00.143Z,0.00
2019-03-09T02:44:00.134Z,0.00
2019-03-09T02:45:00.417Z,0.00
2019-03-09T02:46:00.122Z,0.00
2019-03-09T02:47:00.116Z,0.00
2019-03-09T02:48:00.103Z,0.00
2019-03-09T02:49:00.097Z,0.00
2019-03-09T02:50:00.362Z,0.00
2019-03-09T02:51:00.078Z,0.00
2019-03-09T02:52:00.074Z,0.00
2019-03-09T02:53:00.070Z,0.00
2019-03-09T02:54:00.053Z,0.00
2019-03-09T02:55:00.045Z,0.00
2019-03-09T02:56:00.037Z,0.00
2019-03-09T02:57:00.054Z,0.00
2019-03-09T02:58:00.023Z,0.00
2019-03-09T02:59:00.017Z,0.00
2019-03-09T03:00:01.268Z,0.00
2019-03-09T03:01:00.012Z,0.00
2019-03-09T03:01:59.998Z,0.00
2019-03-09T03:03:00.036Z,0.00
2019-03-09T03:03:59.983Z,0.00
2019-03-09T03:04:59.974Z,0.00
2019-03-09T03:05:59.956Z,0.00
2019-03-09T03:06:59.949Z,0.00
2019-03-09T03:07:59.947Z,0.00
2019-03-09T03:08:59.940Z,0.00
2019-03-09T03:09:59.930Z,0.00
2019-03-09T03:10:59.916Z,0.00
2019-03-09T03:11:59.910Z,0.00
2019-03-09T03:12:59.900Z,0.00
2019-03-09T03:13:59.892Z,0.00
2019-03-09T03:14:59.895Z,0.00
2019-03-09T03:15:59.894Z,0.00
2019-03-09T03:16:59.871Z,0.00
2019-03-09T03:17:59.860Z,0.00
2019-03-09T03:18:59.853Z,0.00
2019-03-09T03:19:59.847Z,0.00
2019-03-09T03:20:59.838Z,0.00
2019-03-09T03:21:59.830Z,0.00
2019-03-09T03:22:59.823Z,0.00
2019-03-09T03:23:59.812Z,0.00
2019-03-09T03:24:59.805Z,0.00
2019-03-09T03:25:59.800Z,0.00
2019-03-09T03:26:59.794Z,0.00
2019-03-09T03:27:59.782Z,0.00
2019-03-09T03:28:59.773Z,0.00
2019-03-09T03:29:59.763Z,0.00
2019-03-09T03:30:59.866Z,0.00
2019-03-09T03:31:59.750Z,0.00
2019-03-09T03:32:59.741Z,0.00
2019-03-09T03:33:59.738Z,0.00
2019-03-09T03:34:59.725Z,0.00
2019-03-09T03:35:59.716Z,0.00
2019-03-09T03:36:59.709Z,0.00
2019-03-09T03:37:59.702Z,0.00
2019-03-09T03:38:59.694Z,0.00
2019-03-09T03:39:59.684Z,0.00
2019-03-09T03:40:59.680Z,0.00
2019-03-09T03:41:59.670Z,0.00
2019-03-09T03:42:59.663Z,0.00
2019-03-09T03:43:59.653Z,0.00
2019-03-09T03:44:59.644Z,0.00
2019-03-09T03:45:59.637Z,0.00
2019-03-09T03:46:59.631Z,0.00
2019-03-09T03:47:59.639Z,0.00
2019-03-09T03:48:59.612Z,0.00
2019-03-09T03:49:59.605Z,0.00
2019-03-09T03:50:59.597Z,0.00
2019-03-09T03:51:59.600Z,0.00
2019-03-09T03:52:59.621Z,0.00
2019-03-09T03:53:59.580Z,0.00
2019-03-09T03:54:59.574Z,0.00
2019-03-09T03:55:59.558Z,0.00
2019-03-09T03:56:59.550Z,0.00
2019-03-09T03:57:59.544Z,0.00
2019-03-09T03:58:59.536Z,0.00
2019-03-09T03:59:59.527Z,0.00
2019-03-09T04:00:59.519Z,0.00
2019-03-09T04:01:59.511Z,0.00
2019-03-09T04:02:59.505Z,0.00
2019-03-09T04:03:59.505Z,0.00
2019-03-09T04:04:59.487Z,0.00
2019-03-09T04:05:59.481Z,0.00
2019-03-09T04:06:59.470Z,0.00
2019-03-09T04:07:59.468Z,0.00
2019-03-09T04:08:59.454Z,0.00
2019-03-09T04:09:59.448Z,0.00
2019-03-09T04:10:59.439Z,0.00
2019-03-09T04:11:59.430Z,0.00
2019-03-09T04:12:59.422Z,0.00
2019-03-09T04:13:59.414Z,0.00
2019-03-09T04:14:59.410Z,0.00
2019-03-09T04:15:59.404Z,0.00
2019-03-09T04:16:59.396Z,0.00
2019-03-09T04:17:59.386Z,0.00
2019-03-09T04:18:59.376Z,0.00
2019-03-09T04:19:59.373Z,0.00
2019-03-09T04:21:01.865Z,0.00
2019-03-09T04:21:59.350Z,0.00
2019-03-09T04:22:59.342Z,0.00
2019-03-09T04:23:59.336Z,0.00
2019-03-09T04:24:59.327Z,0.00
2019-03-09T04:25:59.321Z,0.00
2019-03-09T04:26:59.312Z,0.00
2019-03-09T04:27:59.306Z,0.00
2019-03-09T04:28:59.297Z,0.00
2019-03-09T04:29:59.289Z,0.00
2019-03-09T04:30:59.279Z,0.00
2019-03-09T04:31:59.277Z,0.00
2019-03-09T04:32:59.265Z,0.00
2019-03-09T04:33:59.261Z,0.00
2019-03-09T04:34:59.248Z,0.00
2019-03-09T04:35:59.254Z,0.00
2019-03-09T04:36:59.235Z,0.00
2019-03-09T04:37:59.222Z,0.00
2019-03-09T04:38:59.224Z,0.00
2019-03-09T04:39:59.208Z,0.00
2019-03-09T04:40:59.205Z,0.00
2019-03-09T04:41:59.192Z,0.00
2019-03-09T04:42:59.184Z,0.00
2019-03-09T04:43:59.177Z,0.00
2019-03-09T04:44:59.169Z,0.00
2019-03-09T04:45:59.161Z,0.00
2019-03-09T04:46:59.155Z,0.00
2019-03-09T04:47:59.145Z,0.00
2019-03-09T04:48:59.137Z,0.00
2019-03-09T04:49:59.130Z,0.00
2019-03-09T04:50:59.124Z,0.00
2019-03-09T04:51:59.117Z,0.00
2019-03-09T04:52:59.103Z,0.00
2019-03-09T04:53:59.099Z,0.00
2019-03-09T04:54:59.088Z,0.00
2019-03-09T04:55:59.082Z,0.00
2019-03-09T04:56:59.076Z,0.00
2019-03-09T04:57:59.066Z,0.00
2019-03-09T04:58:59.056Z,0.00
2019-03-09T04:59:59.048Z,0.00
2019-03-09T05:00:59.043Z,0.00
2019-03-09T05:01:59.031Z,0.00
2019-03-09T05:02:59.024Z,0.00
2019-03-09T05:03:59.022Z,0.00
2019-03-09T05:04:59.034Z,0.00
2019-03-09T05:05:59.003Z,0.00
2019-03-09T05:06:58.995Z,0.00
2019-03-09T05:07:58.984Z,0.00
2019-03-09T05:08:58.977Z,0.00
2019-03-09T05:09:58.970Z,0.00
2019-03-09T05:10:58.962Z,0.00
2019-03-09T05:11:58.954Z,0.00
2019-03-09T05:12:58.945Z,0.00
2019-03-09T05:13:58.935Z,0.00
2019-03-09T05:14:58.931Z,0.00
2019-03-09T05:15:58.922Z,4.00
2019-03-09T05:16:58.915Z,0.00
2019-03-09T05:17:58.905Z,0.00
2019-03-09T05:18:58.895Z,4.00
2019-03-09T05:19:58.889Z,4.00
2019-03-09T05:20:58.882Z,4.00
2019-03-09T05:21:58.892Z,8.00
2019-03-09T05:22:58.864Z,8.00
2019-03-09T05:23:58.858Z,12.00
2019-03-09T05:24:58.849Z,12.00
2019-03-09T05:25:58.847Z,12.00
2019-03-09T05:26:58.832Z,16.00
2019-03-09T05:27:58.825Z,20.00
2019-03-09T05:28:58.818Z,16.00
2019-03-09T05:29:58.812Z,16.00
2019-03-09T05:30:58.800Z,20.00
2019-03-09T05:31:58.794Z,20.00
2019-03-09T05:32:58.790Z,20.00
2019-03-09T05:33:58.776Z,24.00
2019-03-09T05:34:58.769Z,32.00
2019-03-09T05:35:58.764Z,36.00
2019-03-09T05:36:58.756Z,36.00
2019-03-09T05:37:58.747Z,36.00
2019-03-09T05:38:58.738Z,40.00
2019-03-09T05:39:58.729Z,48.00
2019-03-09T05:40:58.721Z,52.00
2019-03-09T05:41:58.712Z,48.00
2019-03-09T05:42:58.705Z,56.00
2019-03-09T05:43:58.702Z,56.00
2019-03-09T05:44:58.690Z,52.00
2019-03-09T05:45:58.681Z,44.00
2019-03-09T05:46:58.671Z,40.00
2019-03-09T05:47:58.672Z,40.00
2019-03-09T05:48:58.657Z,40.00
2019-03-09T05:49:58.647Z,44.00
2019-03-09T05:50:58.641Z,44.00
2019-03-09T05:51:58.637Z,48.00
2019-03-09T05:52:58.625Z,52.00
2019-03-09T05:53:58.617Z,56.00
2019-03-09T05:54:58.608Z,72.00
2019-03-09T05:55:58.600Z,84.00
2019-03-09T05:56:58.592Z,88.00
2019-03-09T05:57:58.585Z,104.00
2019-03-09T05:58:58.577Z,112.00
2019-03-09T05:59:58.567Z,108.00
2019-03-09T06:00:58.559Z,96.00
2019-03-09T06:01:58.554Z,104.00
2019-03-09T06:02:58.546Z,104.00
2019-03-09T06:04:00.193Z,116.00
2019-03-09T06:04:58.532Z,108.00
2019-03-09T06:05:58.522Z,128.00
2019-03-09T06:06:58.518Z,120.00
2019-03-09T06:07:58.511Z,108.00
2019-03-09T06:08:58.498Z,120.00
2019-03-09T06:09:58.488Z,132.00
2019-03-09T06:10:58.484Z,168.00
2019-03-09T06:11:58.476Z,172.00
2019-03-09T06:12:58.462Z,156.00
2019-03-09T06:13:58.463Z,152.00
2019-03-09T06:14:58.447Z,164.00
2019-03-09T06:15:58.441Z,184.00
2019-03-09T06:16:58.431Z,208.00
2019-03-09T06:17:58.424Z,212.00
2019-03-09T06:18:58.420Z,188.00
2019-03-09T06:19:58.411Z,224.00
2019-03-09T06:20:58.399Z,224.00
2019-03-09T06:21:58.389Z,244.00
2019-03-09T06:22:58.384Z,232.00
2019-03-09T06:23:58.378Z,264.00
2019-03-09T06:24:58.368Z,236.00
2019-03-09T06:25:58.363Z,216.00
2019-03-09T06:26:58.354Z,248.00
2019-03-09T06:27:58.346Z,268.00
2019-03-09T06:28:58.335Z,260.00
2019-03-09T06:29:58.330Z,220.00
2019-03-09T06:30:58.321Z,252.00
2019-03-09T06:31:58.313Z,236.00
2019-03-09T06:32:58.304Z,204.00
2019-03-09T06:33:58.297Z,232.00
2019-03-09T06:34:58.289Z,216.00
2019-03-09T06:35:58.280Z,224.00
2019-03-09T06:36:58.272Z,236.00
2019-03-09T06:37:58.270Z,280.00
2019-03-09T06:38:58.255Z,292.00
2019-03-09T06:39:58.251Z,324.00
2019-03-09T06:41:02.866Z,312.00
2019-03-09T06:41:58.231Z,288.00
2019-03-09T06:42:58.226Z,220.00
2019-03-09T06:43:58.217Z,240.00
2019-03-09T06:44:58.209Z,224.00
2019-03-09T06:45:58.200Z,236.00
2019-03-09T06:46:58.193Z,300.00
2019-03-09T06:47:58.184Z,392.00
2019-03-09T06:48:58.176Z,540.00
2019-03-09T06:49:58.173Z,636.00
2019-03-09T06:50:58.161Z,764.00
2019-03-09T06:51:58.154Z,848.00
2019-03-09T06:52:58.143Z,948.00
2019-03-09T06:53:58.135Z,864.00
2019-03-09T06:54:58.127Z,876.00
2019-03-09T06:55:58.124Z,720.00
2019-03-09T06:56:58.110Z,612.00
2019-03-09T06:57:58.104Z,604.00
2019-03-09T06:58:58.095Z,564.00
2019-03-09T06:59:58.097Z,504.00
2019-03-09T07:00:58.078Z,416.00
2019-03-09T07:01:58.070Z,352.00
2019-03-09T07:02:58.063Z,296.00
2019-03-09T07:03:58.058Z,244.00
2019-03-09T07:04:58.046Z,212.00
2019-03-09T07:05:58.038Z,216.00
2019-03-09T07:06:58.030Z,272.00
2019-03-09T07:07:58.022Z,468.00
2019-03-09T07:08:58.014Z,540.00
2019-03-09T07:09:58.007Z,748.00
2019-03-09T07:10:58.000Z,868.00
2019-03-09T07:11:57.989Z,1048.00
2019-03-09T07:12:57.985Z,1292.00
2019-03-09T07:13:57.977Z,1364.00
2019-03-09T07:14:57.968Z,1400.00
2019-03-09T07:15:57.964Z,1372.00
2019-03-09T07:16:57.950Z,1232.00
2019-03-09T07:17:57.943Z,1160.00
2019-03-09T07:18:57.934Z,1328.00
2019-03-09T07:19:57.926Z,1444.00
2019-03-09T07:20:57.926Z,1464.00
2019-03-09T07:21:57.910Z,1080.00
2019-03-09T07:22:57.904Z,1124.00
2019-03-09T07:23:57.896Z,932.00
2019-03-09T07:24:57.886Z,920.00
2019-03-09T07:25:57.876Z,860.00
2019-03-09T07:26:57.871Z,960.00
2019-03-09T07:27:57.863Z,884.00
2019-03-09T07:28:57.855Z,964.00
2019-03-09T07:29:57.847Z,1028.00
2019-03-09T07:30:57.835Z,1068.00
2019-03-09T07:31:57.830Z,972.00
2019-03-09T07:32:57.823Z,900.00
2019-03-09T07:33:57.813Z,904.00
2019-03-09T07:34:57.806Z,928.00
2019-03-09T07:35:57.797Z,808.00
2019-03-09T07:36:57.793Z,816.00
2019-03-09T07:37:57.783Z,836.00
2019-03-09T07:38:57.778Z,956.00
2019-03-09T07:39:57.764Z,1184.00
2019-03-09T07:40:57.760Z,996.00
2019-03-09T07:41:57.749Z,1020.00
2019-03-09T07:42:57.743Z,824.00
2019-03-09T07:43:57.732Z,916.00
2019-03-09T07:44:57.726Z,928.00
2019-03-09T07:45:57.719Z,1044.00
2019-03-09T07:46:57.709Z,856.00
2019-03-09T07:47:57.701Z,852.00
2019-03-09T07:48:57.693Z,860.00
2019-03-09T07:49:57.686Z,872.00
2019-03-09T07:50:57.678Z,668.00
2019-03-09T07:51:57.673Z,668.00
2019-03-09T07:52:57.667Z,588.00
2019-03-09T07:53:57.692Z,556.00
2019-03-09T07:54:57.645Z,632.00
2019-03-09T07:55:57.642Z,868.00
2019-03-09T07:56:57.633Z,916.00
2019-03-09T07:57:57.624Z,1296.00
2019-03-09T07:58:57.613Z,1252.00
2019-03-09T07:59:57.607Z,1112.00
2019-03-09T08:00:57.599Z,880.00
2019-03-09T08:01:57.596Z,772.00
2019-03-09T08:02:57.584Z,736.00
2019-03-09T08:03:57.582Z,656.00
2019-03-09T08:04:57.590Z,760.00
2019-03-09T08:05:57.563Z,892.00
2019-03-09T08:06:57.566Z,728.00
2019-03-09T08:07:57.547Z,1008.00
2019-03-09T08:08:57.539Z,972.00
2019-03-09T08:09:57.531Z,888.00
2019-03-09T08:10:57.520Z,1160.00
2019-03-09T08:11:57.514Z,1124.00
2019-03-09T08:12:57.507Z,1324.00
2019-03-09T08:13:57.501Z,1824.00
2019-03-09T08:14:57.493Z,2348.00
2019-03-09T08:15:57.487Z,1968.00
2019-03-09T08:16:57.478Z,2240.00
2019-03-09T08:17:57.468Z,2544.00
2019-03-09T08:18:57.466Z,1748.00
2019-03-09T08:19:57.453Z,2048.00
2019-03-09T08:20:57.446Z,3456.00
2019-03-09T08:21:57.436Z,3964.00
2019-03-09T08:22:57.429Z,3108.00
2019-03-09T08:23:57.425Z,3460.00
2019-03-09T08:24:57.413Z,3344.00
2019-03-09T08:25:57.407Z,4416.00
2019-03-09T08:26:57.398Z,5028.00
2019-03-09T08:27:57.390Z,4480.00
2019-03-09T08:28:57.388Z,5528.00
2019-03-09T08:29:57.381Z,6400.00
2019-03-09T08:30:57.371Z,5488.00
2019-03-09T08:31:57.366Z,5580.00
2019-03-09T08:32:57.352Z,4440.00
2019-03-09T08:33:57.347Z,5508.00
2019-03-09T08:34:57.342Z,4412.00
2019-03-09T08:35:57.334Z,3092.00
2019-03-09T08:36:57.324Z,4852.00
2019-03-09T08:37:57.332Z,5128.00
2019-03-09T08:38:57.326Z,4400.00
2019-03-09T08:39:57.327Z,4756.00
2019-03-09T08:40:57.314Z,5208.00
2019-03-09T08:41:57.292Z,5052.00
2019-03-09T08:42:57.285Z,5356.00
2019-03-09T08:43:57.279Z,3788.00
2019-03-09T08:44:57.301Z,3472.00
2019-03-09T08:45:57.266Z,4704.00
2019-03-09T08:46:57.256Z,4412.00
2019-03-09T08:47:57.251Z,3512.00
2019-03-09T08:48:57.244Z,2776.00
2019-03-09T08:49:57.237Z,3544.00
2019-03-09T08:50:57.238Z,3048.00
2019-03-09T08:51:57.226Z,5028.00
2019-03-09T08:52:57.234Z,4208.00
2019-03-09T08:53:57.223Z,5704.00
2019-03-09T08:54:57.234Z,3756.00
2019-03-09T08:55:57.271Z,3016.00
2019-03-09T08:56:57.189Z,2876.00
2019-03-09T08:57:57.186Z,2944.00
2019-03-09T08:58:57.174Z,3044.00
2019-03-09T08:59:57.163Z,2884.00
2019-03-09T09:00:57.193Z,2676.00
2019-03-09T09:01:57.154Z,2596.00
2019-03-09T09:02:57.151Z,2624.00
2019-03-09T09:03:57.144Z,2628.00
2019-03-09T09:04:57.135Z,2584.00
2019-03-09T09:05:57.129Z,2616.00
2019-03-09T09:06:57.123Z,2616.00
2019-03-09T09:07:57.120Z,2628.00
2019-03-09T09:08:57.110Z,2616.00
2019-03-09T09:09:57.110Z,2768.00
2019-03-09T09:10:57.093Z,2664.00
2019-03-09T09:11:57.086Z,2788.00
2019-03-09T09:12:57.092Z,2760.00
2019-03-09T09:13:57.070Z,3620.00
2019-03-09T09:14:57.065Z,3848.00
2019-03-09T09:15:57.056Z,5748.00
2019-03-09T09:16:57.055Z,7472.00
2019-03-09T09:17:57.048Z,5572.00
2019-03-09T09:18:57.041Z,6136.00
2019-03-09T09:19:57.032Z,7300.00
2019-03-09T09:20:57.030Z,5492.00
2019-03-09T09:21:57.017Z,5312.00
2019-03-09T09:22:57.019Z,6324.00
2019-03-09T09:23:57.005Z,6324.00
2019-03-09T09:24:57.003Z,5584.00
2019-03-09T09:25:56.993Z,4268.00
2019-03-09T09:26:56.987Z,4060.00
2019-03-09T09:27:56.979Z,5696.00
2019-03-09T09:28:56.970Z,6080.00
2019-03-09T09:29:56.969Z,4316.00
2019-03-09T09:30:56.961Z,3672.00
2019-03-09T09:31:56.956Z,4416.00
2019-03-09T09:32:56.950Z,4068.00
2019-03-09T09:33:58.477Z,4964.00
2019-03-09T09:34:56.935Z,5460.00
2019-03-09T09:35:56.932Z,6524.00
2019-03-09T09:36:56.924Z,5212.00
2019-03-09T09:37:56.917Z,4780.00
2019-03-09T09:38:56.915Z,6508.00
2019-03-09T09:39:56.907Z,6080.00
2019-03-09T09:40:56.900Z,6228.00
2019-03-09T09:41:56.894Z,6732.00
2019-03-09T09:42:56.887Z,6212.00
2019-03-09T09:43:56.883Z,6656.00
2019-03-09T09:44:56.875Z,7220.00
2019-03-09T09:45:56.872Z,4528.00
2019-03-09T09:46:56.867Z,5336.00
2019-03-09T09:47:56.858Z,5396.00
2019-03-09T09:48:56.853Z,5152.00
2019-03-09T09:49:56.851Z,6308.00
2019-03-09T09:50:56.844Z,4860.00
2019-03-09T09:51:56.842Z,3984.00
2019-03-09T09:52:56.847Z,3772.00
2019-03-09T09:53:56.828Z,3548.00
2019-03-09T09:54:56.819Z,4176.00
2019-03-09T09:55:56.820Z,3668.00
2019-03-09T09:56:56.806Z,3564.00
2019-03-09T09:57:56.807Z,4092.00
2019-03-09T09:58:56.801Z,4960.00
2019-03-09T09:59:56.792Z,5100.00
2019-03-09T10:00:56.793Z,4432.00
2019-03-09T10:01:56.777Z,4944.00
2019-03-09T10:02:56.772Z,4704.00
2019-03-09T10:03:56.767Z,4920.00
2019-03-09T10:04:56.766Z,4352.00
2019-03-09T10:05:56.755Z,4508.00
2019-03-09T10:06:56.751Z,4408.00
2019-03-09T10:07:56.749Z,2588.00
2019-03-09T10:08:56.738Z,2120.00
2019-03-09T10:09:56.732Z,2568.00
2019-03-09T10:10:56.731Z,2620.00
2019-03-09T10:11:56.725Z,2408.00
2019-03-09T10:12:56.719Z,4864.00
2019-03-09T10:13:56.709Z,3328.00
2019-03-09T10:14:56.707Z,2008.00
2019-03-09T10:15:56.700Z,1596.00
2019-03-09T10:16:56.687Z,1912.00
2019-03-09T10:17:56.688Z,1984.00
2019-03-09T10:18:56.682Z,1676.00
2019-03-09T10:19:56.684Z,1456.00
2019-03-09T10:20:56.671Z,2224.00
2019-03-09T10:21:56.667Z,4368.00
2019-03-09T10:23:04.264Z,2824.00
2019-03-09T10:23:56.655Z,2092.00
2019-03-09T10:24:56.646Z,2308.00
2019-03-09T10:25:56.641Z,3788.00
2019-03-09T10:26:56.634Z,3816.00
2019-03-09T10:27:56.628Z,5652.00
2019-03-09T10:28:56.624Z,4764.00
2019-03-09T10:29:56.616Z,5244.00
2019-03-09T10:30:56.611Z,6872.00
2019-03-09T10:31:56.605Z,5416.00
2019-03-09T10:32:56.597Z,5628.00
2019-03-09T10:33:56.592Z,5164.00
2019-03-09T10:34:56.587Z,5324.00
2019-03-09T10:35:56.582Z,5668.00
2019-03-09T10:36:56.582Z,6068.00
2019-03-09T10:37:56.568Z,6324.00
2019-03-09T10:38:56.559Z,6812.00
2019-03-09T10:39:56.558Z,6216.00
2019-03-09T10:40:56.554Z,5160.00
2019-03-09T10:41:56.546Z,4328.00
2019-03-09T10:42:56.543Z,3908.00
2019-03-09T10:43:56.539Z,4308.00
2019-03-09T10:44:56.528Z,4780.00
2019-03-09T10:45:56.522Z,3640.00
2019-03-09T10:46:56.517Z,4152.00
2019-03-09T10:47:56.516Z,3740.00
2019-03-09T10:48:56.503Z,4936.00
2019-03-09T10:49:56.502Z,5312.00
2019-03-09T10:50:56.494Z,5696.00
2019-03-09T10:51:56.489Z,5676.00
2019-03-09T10:52:56.484Z,5288.00
2019-03-09T10:53:56.477Z,4960.00
2019-03-09T10:54:56.473Z,4216.00
2019-03-09T10:55:56.465Z,3716.00
2019-03-09T10:56:56.459Z,4912.00
2019-03-09T10:57:56.457Z,6044.00
2019-03-09T10:58:56.451Z,6092.00
2019-03-09T10:59:56.442Z,5408.00
2019-03-09T11:00:56.439Z,5168.00
2019-03-09T11:01:56.433Z,4124.00
2019-03-09T11:02:56.426Z,4512.00
2019-03-09T11:03:56.422Z,4284.00
2019-03-09T11:04:56.420Z,4812.00
2019-03-09T11:05:56.409Z,4616.00
2019-03-09T11:06:56.402Z,4248.00
2019-03-09T11:07:56.400Z,3108.00
2019-03-09T11:08:56.391Z,2444.00
2019-03-09T11:09:56.384Z,2624.00
2019-03-09T11:10:56.383Z,2684.00
2019-03-09T11:11:56.373Z,3512.00
2019-03-09T11:12:56.369Z,4884.00
2019-03-09T11:13:56.365Z,3744.00
2019-03-09T11:14:56.360Z,2748.00
2019-03-09T11:15:56.355Z,3092.00
2019-03-09T11:16:56.348Z,2828.00
2019-03-09T11:17:56.342Z,3344.00
2019-03-09T11:18:56.335Z,4064.00
2019-03-09T11:19:56.337Z,5524.00
2019-03-09T11:20:56.323Z,4608.00
2019-03-09T11:21:56.320Z,5872.00
2019-03-09T11:22:56.311Z,5976.00
2019-03-09T11:23:56.309Z,6276.00
2019-03-09T11:25:03.303Z,6848.00
2019-03-09T11:25:56.299Z,6532.00
2019-03-09T11:26:56.291Z,6144.00
2019-03-09T11:27:56.284Z,6848.00
2019-03-09T11:28:56.277Z,6644.00
2019-03-09T11:29:56.263Z,5428.00
2019-03-09T11:30:56.269Z,4644.00
2019-03-09T11:31:56.259Z,4820.00
2019-03-09T11:32:56.258Z,4652.00
2019-03-09T11:33:56.255Z,3932.00
2019-03-09T11:34:56.246Z,3404.00
2019-03-09T11:35:56.243Z,3592.00
2019-03-09T11:36:56.237Z,4040.00
2019-03-09T11:37:56.233Z,5224.00
2019-03-09T11:38:56.226Z,4672.00
2019-03-09T11:39:56.226Z,5676.00
2019-03-09T11:40:58.551Z,4632.00
2019-03-09T11:41:56.208Z,3828.00
2019-03-09T11:42:56.202Z,3780.00
2019-03-09T11:43:56.198Z,5304.00
2019-03-09T11:44:56.193Z,5664.00
2019-03-09T11:45:56.189Z,4784.00
2019-03-09T11:46:56.185Z,4300.00
2019-03-09T11:47:56.177Z,6756.00
2019-03-09T11:48:56.169Z,6004.00
2019-03-09T11:49:56.168Z,4912.00
2019-03-09T11:50:56.161Z,5416.00
2019-03-09T11:51:56.158Z,5804.00
2019-03-09T11:52:56.152Z,4192.00
2019-03-09T11:53:56.146Z,4064.00
2019-03-09T11:54:56.176Z,3492.00
2019-03-09T11:55:56.134Z,3884.00
2019-03-09T11:56:56.127Z,3024.00
2019-03-09T11:57:56.123Z,3068.00
2019-03-09T11:58:56.124Z,3492.00
2019-03-09T11:59:56.114Z,2976.00
2019-03-09T12:00:56.107Z,2936.00
2019-03-09T12:01:56.104Z,2876.00
2019-03-09T12:02:56.097Z,3044.00
2019-03-09T12:03:56.093Z,3408.00
2019-03-09T12:04:56.088Z,3428.00
2019-03-09T12:05:56.085Z,3324.00
2019-03-09T12:06:56.074Z,3356.00
2019-03-09T12:07:56.070Z,3344.00
2019-03-09T12:08:56.064Z,3388.00
2019-03-09T12:09:56.125Z,3744.00
2019-03-09T12:10:56.052Z,3692.00
2019-03-09T12:11:56.048Z,3936.00
2019-03-09T12:12:56.043Z,4168.00
2019-03-09T12:13:56.037Z,3876.00
2019-03-09T12:14:56.032Z,4120.00
2019-03-09T12:15:56.027Z,4612.00
2019-03-09T12:16:56.020Z,4140.00
2019-03-09T12:17:56.013Z,4208.00
2019-03-09T12:18:56.010Z,4292.00
2019-03-09T12:19:56.003Z,4616.00
2019-03-09T12:20:55.999Z,4636.00
2019-03-09T12:21:55.992Z,4648.00
2019-03-09T12:23:01.177Z,4872.00
2019-03-09T12:23:55.981Z,5296.00
2019-03-09T12:24:55.978Z,5664.00
2019-03-09T12:25:55.970Z,5992.00
2019-03-09T12:26:55.971Z,6104.00
2019-03-09T12:27:55.960Z,6212.00
2019-03-09T12:28:55.953Z,6344.00
2019-03-09T12:29:55.952Z,6424.00
2019-03-09T12:30:55.946Z,6480.00
2019-03-09T12:31:55.940Z,6416.00
2019-03-09T12:32:55.934Z,6396.00
2019-03-09T12:33:55.928Z,6232.00
2019-03-09T12:34:55.928Z,6564.00
2019-03-09T12:35:55.926Z,6788.00
2019-03-09T12:36:55.916Z,6560.00
2019-03-09T12:37:55.910Z,6592.00
2019-03-09T12:38:55.907Z,6500.00
2019-03-09T12:39:55.908Z,5976.00